地図

経路データ

SID SEASON NUMBER BASIN SUBBASIN NAME ISO_TIME NATURE LAT LON WMO_WIND WMO_PRES WMO_AGENCY TRACK_TYPE DIST2LAND LANDFALL IFLAG USA_AGENCY USA_ATCF_ID USA_LAT USA_LON USA_RECORD USA_STATUS USA_WIND USA_PRES USA_SSHS USA_R34_NE USA_R34_SE USA_R34_SW USA_R34_NW USA_R50_NE USA_R50_SE USA_R50_SW USA_R50_NW USA_R64_NE USA_R64_SE USA_R64_SW USA_R64_NW USA_POCI USA_ROCI USA_RMW USA_EYE TOKYO_LAT TOKYO_LON TOKYO_GRADE TOKYO_WIND TOKYO_PRES TOKYO_R50_DIR TOKYO_R50_LONG TOKYO_R50_SHORT TOKYO_R30_DIR TOKYO_R30_LONG TOKYO_R30_SHORT TOKYO_LAND CMA_LAT CMA_LON CMA_CAT CMA_WIND CMA_PRES HKO_LAT HKO_LON HKO_CAT HKO_WIND HKO_PRES NEWDELHI_LAT NEWDELHI_LON NEWDELHI_GRADE NEWDELHI_WIND NEWDELHI_PRES NEWDELHI_CI NEWDELHI_DP NEWDELHI_POCI REUNION_LAT REUNION_LON REUNION_TYPE REUNION_WIND REUNION_PRES REUNION_TNUM REUNION_CI REUNION_RMW REUNION_R34_NE REUNION_R34_SE REUNION_R34_SW REUNION_R34_NW REUNION_R50_NE REUNION_R50_SE REUNION_R50_SW REUNION_R50_NW REUNION_R64_NE REUNION_R64_SE REUNION_R64_SW REUNION_R64_NW BOM_LAT BOM_LON BOM_TYPE BOM_WIND BOM_PRES BOM_TNUM BOM_CI BOM_RMW BOM_R34_NE BOM_R34_SE BOM_R34_SW BOM_R34_NW BOM_R50_NE BOM_R50_SE BOM_R50_SW BOM_R50_NW BOM_R64_NE BOM_R64_SE BOM_R64_SW BOM_R64_NW BOM_ROCI BOM_POCI BOM_EYE BOM_POS_METHOD BOM_PRES_METHOD NADI_LAT NADI_LON NADI_CAT NADI_WIND NADI_PRES WELLINGTON_LAT WELLINGTON_LON WELLINGTON_WIND WELLINGTON_PRES DS824_LAT DS824_LON DS824_STAGE DS824_WIND DS824_PRES TD9636_LAT TD9636_LON TD9636_STAGE TD9636_WIND TD9636_PRES TD9635_LAT TD9635_LON TD9635_WIND TD9635_PRES TD9635_ROCI NEUMANN_LAT NEUMANN_LON NEUMANN_CLASS NEUMANN_WIND NEUMANN_PRES MLC_LAT MLC_LON MLC_CLASS MLC_WIND MLC_PRES USA_GUST BOM_GUST BOM_GUST_PER REUNION_GUST REUNION_GUST_PER USA_SEAHGT USA_SEARAD_NE USA_SEARAD_SE USA_SEARAD_SW USA_SEARAD_NW STORM_SPEED STORM_DIR
1902301N11065 1902 45 NI AS NOT_NAMED 1902-10-28 00:00:00 TS 10.5000 64.7000 main 1122 1122 _________O____ -1 10.5000 64.7000 TC 64 3 253
1902301N11065 1902 45 NI AS NOT_NAMED 1902-10-28 03:00:00 TS 10.4600 64.5683 main 1125 1107 _________PO___ -1 10.4400 64.5025 TC 64 10.5000 64.7000 4 3 258
1902301N11065 1902 45 NI AS NOT_NAMED 1902-10-28 06:00:00 TS 10.4288 64.3688 main 1107 1085 _________OP___ -1 10.4000 64.3000 TC 64 10.4721 64.4719 4 4 264
1902301N11065 1902 45 NI AS NOT_NAMED 1902-10-28 09:00:00 TS 10.4151 64.1621 main 1085 1064 _________PP___ -1 10.3925 64.0925 TC 64 10.4453 64.2550 4 4 267
1902301N11065 1902 45 NI AS NOT_NAMED 1902-10-28 12:00:00 TS 10.4104 63.9803 main 1064 1043 _________OP___ -1 10.4000 63.9000 TC 64 10.4208 64.0606 4 3 267
1902301N11065 1902 45 NI AS NOT_NAMED 1902-10-28 15:00:00 TS 10.4000 63.8213 main 1043 1032 _________PO___ -1 10.4000 63.7425 TC 64 10.4000 63.9000 4 3 266
1902301N11065 1902 45 NI AS NOT_NAMED 1902-10-28 18:00:00 TS 10.3922 63.6881 main 1032 1022 _________OP___ -1 10.4000 63.6000 TC 64 10.3844 63.7762 4 2 266
1902301N11065 1902 45 NI AS NOT_NAMED 1902-10-28 21:00:00 TS 10.3848 63.5737 main 1022 1001 _________PP___ -1 10.3924 63.4875 TC 64 10.3771 63.6599 4 3 270
1902301N11065 1902 45 NI AS NOT_NAMED 1902-10-29 00:00:00 TS 10.3906 63.4068 main 1001 969 _________OP___ -1 10.4000 63.3000 TC 64 10.3812 63.5137 4 4 275
1902301N11065 1902 45 NI AS NOT_NAMED 1902-10-29 03:00:00 TS 10.4213 63.1188 main 969 934 _________PO___ -1 10.4426 62.9375 TC 64 10.4000 63.3000 4 7 277
1902301N11065 1902 45 NI AS NOT_NAMED 1902-10-29 06:00:00 TS 10.4680 62.7299 main 924 882 _________OP___ -1 10.5000 62.5000 TC 64 10.4359 62.9598 4 8 277
1902301N11065 1902 45 NI AS NOT_NAMED 1902-10-29 09:00:00 TS 10.5177 62.3225 main 882 837 _________PP___ -1 10.5500 62.0925 TC 64 10.4854 62.5526 4 8 277
1902301N11065 1902 45 NI AS NOT_NAMED 1902-10-29 12:00:00 TS 10.5711 61.9096 main 837 795 _________OP___ -1 10.6000 61.7000 TC 64 10.5421 62.1191 4 8 278
1902301N11065 1902 45 NI AS NOT_NAMED 1902-10-29 15:00:00 TS 10.6250 61.5175 main 795 760 _________PO___ -1 10.6500 61.3350 TC 64 10.6000 61.7000 4 7 278
1902301N11065 1902 45 NI AS NOT_NAMED 1902-10-29 18:00:00 TS 10.6709 61.1706 main 760 729 _________OP___ -1 10.7000 61.0000 TC 64 10.6417 61.3412 4 7 278
1902301N11065 1902 45 NI AS NOT_NAMED 1902-10-29 21:00:00 TS 10.7137 60.8449 main 718 694 _________PP___ -1 10.7425 60.6850 TC 64 10.6848 61.0049 4 6 279
1902301N11065 1902 45 NI AS NOT_NAMED 1902-10-30 00:00:00 TS 10.7678 60.5456 main 684 663 _________OP___ -1 10.8000 60.4000 TC 64 10.7355 60.6912 4 6 283
1902301N11065 1902 45 NI AS NOT_NAMED 1902-10-30 03:00:00 TS 10.8462 60.2712 main 663 628 _________PO___ -1 10.8925 60.1425 TC 64 10.8000 60.4000 4 6 289
1902301N11065 1902 45 NI AS NOT_NAMED 1902-10-30 06:00:00 TS 10.9448 60.0102 main 628 604 _________OP___ -1 11.0000 59.9000 TC 64 10.8896 60.1204 4 5 292
1902301N11065 1902 45 NI AS NOT_NAMED 1902-10-30 09:00:00 TS 11.0499 59.7525 main 604 569 _________PP___ -1 11.1075 59.6425 TC 64 10.9924 59.8626 4 5 293
1902301N11065 1902 45 NI AS NOT_NAMED 1902-10-30 12:00:00 TS 11.1495 59.5117 main 569 545 _________OP___ -1 11.2000 59.4000 TC 64 11.0990 59.6235 4 5 291
1902301N11065 1902 45 NI AS NOT_NAMED 1902-10-30 15:00:00 TS 11.2250 59.2962 main 545 521 _________PO___ -1 11.2500 59.1925 TC 64 11.2000 59.4000 4 4 288
1902301N11065 1902 45 NI AS NOT_NAMED 1902-10-30 18:00:00 TS 11.2809 59.0947 main 521 500 _________OP___ -1 11.3000 59.0000 TC 64 11.2618 59.1895 4 4 288
1902301N11065 1902 45 NI AS NOT_NAMED 1902-10-30 21:00:00 TS 11.3487 58.8998 main 500 476 _________PP___ -1 11.3775 58.8075 TC 64 11.3198 58.9922 4 4 293
1902301N11065 1902 45 NI AS NOT_NAMED 1902-10-31 00:00:00 TS 11.4465 58.6994 main 476 449 _________OP___ -1 11.5000 58.6000 TC 64 11.3930 58.7988 4 5 300
1902301N11065 1902 45 NI AS NOT_NAMED 1902-10-31 03:00:00 TS 11.5925 58.4750 main 449 422 _________PO___ -1 11.6850 58.3500 TC 64 11.5000 58.6000 4 6 307
1902301N11065 1902 45 NI AS NOT_NAMED 1902-10-31 06:00:00 TS 11.7779 58.2431 main 412 386 _________OP___ -1 11.9000 58.1000 TC 64 11.6559 58.3862 4 6 311
1902301N11065 1902 45 NI AS NOT_NAMED 1902-10-31 09:00:00 TS 11.9699 58.0324 main 386 361 _________PP___ -1 12.0925 57.8999 TC 64 11.8474 58.1649 4 6 314
1902301N11065 1902 45 NI AS NOT_NAMED 1902-10-31 12:00:00 TS 12.1826 57.8181 main 361 337 _________OP___ -1 12.3000 57.7000 TC 64 12.0653 57.9362 4 6 315
1902301N11065 1902 45 NI AS NOT_NAMED 1902-10-31 15:00:00 TS 12.4212 57.5787 main 337 304 _________PO___ -1 12.5425 57.4575 TC 64 12.3000 57.7000 4 7 315
1902301N11065 1902 45 NI AS NOT_NAMED 1902-10-31 18:00:00 TS 12.6699 57.3246 main 304 284 _________OP___ -1 12.8000 57.2000 TC 64 12.5397 57.4491 4 7 315
1902301N11065 1902 45 NI AS NOT_NAMED 1902-10-31 21:00:00 TS 12.9250 57.0675 main 284 255 _________PP___ -1 13.0575 56.9425 TC 64 12.7925 57.1926 4 7 316
1902301N11065 1902 45 NI AS NOT_NAMED 1902-11-01 00:00:00 TS 13.1745 56.8199 main 258 244 _________OP___ -1 13.3000 56.7000 TC 64 13.0491 56.9397 4 7 316
1902301N11065 1902 45 NI AS NOT_NAMED 1902-11-01 03:00:00 TS 13.4000 56.5962 main 244 234 _________PO___ -1 13.5000 56.4924 TC 64 13.3000 56.7000 4 6 317
1902301N11065 1902 45 NI AS NOT_NAMED 1902-11-01 06:00:00 TS 13.6160 56.3907 main 234 227 _________OP___ -1 13.7000 56.3000 TC 64 13.5321 56.4814 4 6 319
1902301N11065 1902 45 NI AS NOT_NAMED 1902-11-01 09:00:00 TS 13.8537 56.1886 main 234 225 _________PP___ -1 13.9500 56.1000 TC 64 13.7574 56.2773 4 6 321
1902301N11065 1902 45 NI AS NOT_NAMED 1902-11-01 12:00:00 TS 14.0895 55.9923 main 233 226 _________OP___ -1 14.2000 55.9000 TC 64 13.9790 56.0845 4 6 320
1902301N11065 1902 45 NI AS NOT_NAMED 1902-11-01 15:00:00 TS 14.3000 55.7962 main 236 236 _________PO___ -1 14.4000 55.6925 TC 55 14.2000 55.9000 4 5 319
1902301N11065 1902 45 NI AS NOT_NAMED 1902-11-01 18:00:00 TS 14.4988 55.6262 main 243 243 _________OP___ -1 14.6000 55.5000 TC 47 14.4229 55.7208 4 5 323
1902301N11065 1902 45 NI AS NOT_NAMED 1902-11-01 21:00:00 TS 14.7236 55.4632 main 257 230 _________PP___ -1 14.8375 55.3401 TC 38 14.6476 55.5453 4 5 326
1902301N11065 1902 45 NI AS NOT_NAMED 1902-11-02 00:00:00 TS 14.9490 55.3148 main 230 205 _________OP___ -1 15.1000 55.2000 TC 30 14.8735 55.3722 4 5 326
1902301N11065 1902 45 NI AS NOT_NAMED 1902-11-02 03:00:00 NR 15.1000 55.2000 main 205 __________O___ -1 TC 15.1000 55.2000 1 4 323

IBTrACS Databaseについて

本データベースは、米国NOAAが公開する1842年以降の世界の熱帯低気圧のベストトラックデータアーカイブInternational Best Track Archive for Climate Stewardship (IBTrACS)を、ウェブで閲覧しやすい形式に変換したものです。

最終更新日:2021-10-21